Time;durP1;ratioP1;P1;durP2;ratioP2;P2;SDS_P1;SDS_P2;PMS_P1;PMS_P2;Temp;Humidity;BMP_temperature;BMP_pressure;BME280_temperature;BME280_humidity;BME280_pressure;Samples;Min_cycle;Max_cycle;Signal;HPM_P1;HPM_P2
2023/10/16 00:01:27;;;;;;;2.15;1.77;;;;;;;;;;4873981;29;20057;-80
2023/10/16 00:03:55;;;;;;;2.13;1.52;;;;;;;;;;4889438;29;20040;-80
2023/10/16 00:06:25;;;;;;;2.30;2.08;;;;;;;;;;4890465;29;20407;-80
2023/10/16 00:08:59;;;;;;;2.55;1.73;;;;;;;;;;4875171;29;20052;-80
2023/10/16 00:11:26;;;;;;;1.55;1.42;;;;;;;;;;4873596;29;20061;-80
2023/10/16 00:13:56;;;;;;;2.70;1.73;;;;;;;;;;4873728;29;20045;-80
2023/10/16 00:16:28;;;;;;;2.88;2.33;;;;;;;;;;4889846;29;20053;-80
2023/10/16 00:19:00;;;;;;;1.92;1.48;;;;;;;;;;4889533;29;20065;-80
2023/10/16 00:21:30;;;;;;;2.55;1.80;;;;;;;;;;4888326;29;20061;-80
2023/10/16 00:23:58;;;;;;;3.80;1.40;;;;;;;;;;4886592;29;20060;-80
2023/10/16 00:26:25;;;;;;;2.33;1.65;;;;;;;;;;4888645;29;20071;-80
2023/10/16 00:29:07;;;;;;;3.30;2.25;;;;;;;;;;4889333;29;20566;-80
2023/10/16 00:31:42;;;;;;;3.97;1.65;;;;;;;;;;4872957;29;20061;-80
2023/10/16 00:34:19;;;;;;;2.17;1.85;;;;;;;;;;4888124;29;20056;-80
2023/10/16 00:36:50;;;;;;;5.47;1.50;;;;;;;;;;4873497;29;20052;-80
2023/10/16 00:39:19;;;;;;;2.03;1.92;;;;;;;;;;4889106;29;20495;-80
2023/10/16 00:41:49;;;;;;;1.90;1.67;;;;;;;;;;4885860;29;20068;-80
2023/10/16 00:44:17;;;;;;;2.85;1.65;;;;;;;;;;4875639;29;20056;-80
2023/10/16 00:46:48;;;;;;;2.92;1.52;;;;;;;;;;4888347;29;20395;-80
2023/10/16 00:49:18;;;;;;;2.05;1.80;;;;;;;;;;4874073;29;20056;-80
2023/10/16 00:51:49;;;;;;;2.28;2.08;;;;;;;;;;4873152;29;20053;-80
2023/10/16 00:54:28;;;;;;;1.48;1.38;;;;;;;;;;4872783;29;20061;-81
2023/10/16 00:56:59;;;;;;;2.35;1.92;;;;;;;;;;4872879;29;20067;-80
2023/10/16 00:59:31;;;;;;;3.88;1.50;;;;;;;;;;4873025;29;20064;-80
2023/10/16 01:02:13;;;;;;;2.40;1.83;;;;;;;;;;4888064;29;20060;-80
2023/10/16 01:04:41;;;;;;;4.80;1.95;;;;;;;;;;4884767;29;20057;-81
2023/10/16 01:07:14;;;;;;;2.15;1.77;;;;;;;;;;4882299;29;20056;-81
2023/10/16 01:09:41;;;;;;;2.13;1.63;;;;;;;;;;4877925;29;20528;-81
2023/10/16 01:12:12;;;;;;;3.08;2.22;;;;;;;;;;4862387;29;20440;-81
2023/10/16 01:14:40;;;;;;;1.60;1.50;;;;;;;;;;4865171;29;20057;-81
2023/10/16 01:17:10;;;;;;;2.40;1.90;;;;;;;;;;4865057;29;20049;-81
2023/10/16 01:19:39;;;;;;;5.80;2.78;;;;;;;;;;4866698;29;20082;-81
2023/10/16 01:22:11;;;;;;;2.80;1.55;;;;;;;;;;4885065;29;20566;-81
2023/10/16 01:24:45;;;;;;;2.15;1.95;;;;;;;;;;4866769;29;20053;-81
2023/10/16 01:27:27;;;;;;;2.97;1.60;;;;;;;;;;4886951;29;20053;-81
2023/10/16 01:29:54;;;;;;;3.08;1.92;;;;;;;;;;4864976;29;20057;-81
2023/10/16 01:32:21;;;;;;;2.05;1.70;;;;;;;;;;4888300;29;20056;-81
2023/10/16 01:34:51;;;;;;;2.13;1.70;;;;;;;;;;4883168;29;20515;-81
2023/10/16 01:37:20;;;;;;;3.22;1.48;;;;;;;;;;4863063;29;20069;-81
2023/10/16 01:39:49;;;;;;;4.93;2.25;;;;;;;;;;4863886;29;20064;-81
2023/10/16 01:42:16;;;;;;;3.60;2.75;;;;;;;;;;4880102;29;20057;-81
2023/10/16 01:44:44;;;;;;;2.45;1.90;;;;;;;;;;4865446;29;20059;-81
2023/10/16 01:47:16;;;;;;;3.50;2.00;;;;;;;;;;4859416;29;20057;-81
2023/10/16 01:49:44;;;;;;;2.03;1.83;;;;;;;;;;4864679;29;20444;-81
2023/10/16 01:52:12;;;;;;;9.48;2.63;;;;;;;;;;4864010;29;20076;-81
2023/10/16 01:54:40;;;;;;;3.55;2.15;;;;;;;;;;4865439;29;20057;-81
2023/10/16 01:57:12;;;;;;;4.03;2.47;;;;;;;;;;4879002;29;20056;-81
2023/10/16 01:59:44;;;;;;;4.90;2.33;;;;;;;;;;4865018;29;20045;-81
2023/10/16 02:02:12;;;;;;;3.67;2.42;;;;;;;;;;4861300;29;20053;-81
2023/10/16 02:04:40;;;;;;;4.10;2.72;;;;;;;;;;4870044;29;20571;-81
2023/10/16 02:07:08;;;;;;;3.88;2.53;;;;;;;;;;4879118;29;20064;-81
2023/10/16 02:09:40;;;;;;;2.30;1.60;;;;;;;;;;4882204;29;20075;-81
2023/10/16 02:12:14;;;;;;;2.42;1.98;;;;;;;;;;4864590;29;20062;-81
2023/10/16 02:14:42;;;;;;;2.47;1.65;;;;;;;;;;4864044;29;20060;-81
2023/10/16 02:17:18;;;;;;;1.80;1.63;;;;;;;;;;4861417;29;20056;-81
2023/10/16 02:19:48;;;;;;;3.47;2.13;;;;;;;;;;4879983;29;20052;-81
2023/10/16 02:22:16;;;;;;;2.63;2.10;;;;;;;;;;4879306;29;20056;-81
2023/10/16 02:24:44;;;;;;;3.63;1.73;;;;;;;;;;4884063;29;20060;-81
2023/10/16 02:27:12;;;;;;;2.58;1.98;;;;;;;;;;4865022;29;20064;-81
2023/10/16 02:29:45;;;;;;;3.38;2.08;;;;;;;;;;4881743;29;20418;-81
2023/10/16 02:32:13;;;;;;;3.83;1.70;;;;;;;;;;4877492;29;20057;-81
2023/10/16 02:34:41;;;;;;;3.67;2.97;;;;;;;;;;4880635;29;20064;-81
2023/10/16 02:37:14;;;;;;;4.07;1.63;;;;;;;;;;4864107;29;20056;-81
2023/10/16 02:39:50;;;;;;;2.40;1.95;;;;;;;;;;4863202;29;20049;-81
2023/10/16 02:42:21;;;;;;;3.25;1.70;;;;;;;;;;4862600;29;20052;-81
2023/10/16 02:44:49;;;;;;;3.70;2.00;;;;;;;;;;4864615;29;20056;-82
2023/10/16 02:47:25;;;;;;;2.63;2.42;;;;;;;;;;4864046;29;20522;-81
2023/10/16 02:49:53;;;;;;;;;;;;;;;;;;4880011;29;20053;-81
2023/10/16 02:52:25;;;;;;;1.77;1.50;;;;;;;;;;4862507;29;19924;-81
2023/10/16 02:54:52;;;;;;;1.88;1.60;;;;;;;;;;4865741;29;20523;-81
2023/10/16 02:57:23;;;;;;;2.30;1.98;;;;;;;;;;4865018;29;20064;-81
2023/10/16 02:59:53;;;;;;;3.55;2.38;;;;;;;;;;4866959;29;20062;-81
2023/10/16 03:02:23;;;;;;;2.40;2.17;;;;;;;;;;4866497;29;20288;-81
2023/10/16 03:04:51;;;;;;;2.40;2.00;;;;;;;;;;4883843;29;20052;-81
2023/10/16 03:07:20;;;;;;;2.95;2.30;;;;;;;;;;4871201;29;20049;-81
2023/10/16 03:09:52;;;;;;;2.58;1.92;;;;;;;;;;4886531;29;20053;-81
2023/10/16 03:12:21;;;;;;;3.10;1.98;;;;;;;;;;4867726;29;20411;-81
2023/10/16 03:14:56;;;;;;;3.35;1.75;;;;;;;;;;4869789;29;20498;-81
2023/10/16 03:17:34;;;;;;;2.45;2.20;;;;;;;;;;4884262;29;20415;-81
2023/10/16 03:20:08;;;;;;;6.43;2.38;;;;;;;;;;4881670;29;20641;-81
2023/10/16 03:22:35;;;;;;;5.28;2.20;;;;;;;;;;4870266;29;20395;-81
2023/10/16 03:25:17;;;;;;;4.43;2.22;;;;;;;;;;4893574;29;20059;-81
2023/10/16 03:27:44;;;;;;;3.13;1.90;;;;;;;;;;4872579;29;20049;-81
2023/10/16 03:30:19;;;;;;;2.13;1.65;;;;;;;;;;4872296;29;20057;-81
2023/10/16 03:32:50;;;;;;;2.00;1.65;;;;;;;;;;4887181;29;20045;-81
2023/10/16 03:35:25;;;;;;;2.83;1.63;;;;;;;;;;4871526;29;20061;-81
2023/10/16 03:37:55;;;;;;;3.55;2.03;;;;;;;;;;4888447;29;20044;-81
2023/10/16 03:40:24;;;;;;;1.90;1.55;;;;;;;;;;4872714;29;20440;-81
2023/10/16 03:42:53;;;;;;;3.33;2.08;;;;;;;;;;4886457;29;20071;-80
2023/10/16 03:45:22;;;;;;;4.97;2.83;;;;;;;;;;4887270;29;20056;-80
2023/10/16 03:47:52;;;;;;;2.80;2.10;;;;;;;;;;4888147;29;20048;-80
2023/10/16 03:50:25;;;;;;;3.25;2.17;;;;;;;;;;4890725;29;20057;-80
2023/10/16 03:52:54;;;;;;;;;;;;;;;;;;4872022;29;20075;-80
2023/10/16 03:55:24;;;;;;;8.07;3.30;;;;;;;;;;4891890;29;19931;-80
2023/10/16 03:57:55;;;;;;;4.78;2.42;;;;;;;;;;4886828;29;20407;-80
2023/10/16 04:00:26;;;;;;;11.60;3.67;;;;;;;;;;4870784;29;20063;-80
2023/10/16 04:02:53;;;;;;;26.33;3.88;;;;;;;;;;4898489;29;20053;-80
2023/10/16 04:05:33;;;;;;;22.58;6.38;;;;;;;;;;4872571;29;20064;-80
2023/10/16 04:08:03;;;;;;;11.65;3.63;;;;;;;;;;4890214;29;20049;-80
2023/10/16 04:10:34;;;;;;;24.90;6.38;;;;;;;;;;4876216;29;20056;-80
2023/10/16 04:13:01;;;;;;;47.00;9.25;;;;;;;;;;4881725;29;20059;-80
2023/10/16 04:18:28;;;;;;;42.88;8.48;;;;;;;;;;4882888;29;20056;-80
2023/10/16 04:21:17;;;;;;;66.30;10.68;;;;;;;;;;4888235;29;20512;-80
2023/10/16 04:23:55;;;;;;;15.38;3.15;;;;;;;;;;4872440;29;20057;-80
2023/10/16 04:29:25;;;;;;;26.08;5.20;;;;;;;;;;4847594;29;20056;-80
2023/10/16 04:31:56;;;;;;;54.90;8.82;;;;;;;;;;4871048;29;20415;-80
2023/10/16 04:34:31;;;;;;;15.10;4.40;;;;;;;;;;4872213;29;20064;-81
2023/10/16 04:48:48;;;;;;;28.27;6.40;;;;;;;;;;4864866;29;20045;-80
2023/10/16 04:51:17;;;;;;;22.00;5.60;;;;;;;;;;4887666;29;20056;-81
2023/10/16 04:53:58;;;;;;;45.08;8.98;;;;;;;;;;4882124;29;20060;-80
2023/10/16 04:56:57;;;;;;;6.57;4.18;;;;;;;;;;4882879;29;20060;-80
2023/10/16 05:02:33;;;;;;;37.70;7.53;;;;;;;;;;4885670;29;20052;-81
2023/10/16 05:08:07;;;;;;;18.65;4.72;;;;;;;;;;4871029;29;20045;-81
2023/10/16 05:13:43;;;;;;;32.05;8.85;;;;;;;;;;4856515;29;20090;-80
2023/10/16 05:19:02;;;;;;;18.92;4.45;;;;;;;;;;4875101;29;20064;-80
2023/10/16 06:14:21;;;;;;;4.05;3.58;;;;;;;;;;4884754;29;20049;-80
2023/10/16 06:16:52;;;;;;;5.63;3.70;;;;;;;;;;4869746;29;20060;-80
2023/10/16 06:19:22;;;;;;;3.88;3.15;;;;;;;;;;4881752;29;20049;-80
2023/10/16 06:21:51;;;;;;;3.60;2.50;;;;;;;;;;4882709;29;20064;-80
2023/10/16 06:24:28;;;;;;;5.63;3.95;;;;;;;;;;4872769;29;20055;-80
2023/10/16 06:26:57;;;;;;;5.70;3.15;;;;;;;;;;4865916;29;20059;-80
2023/10/16 06:29:34;;;;;;;4.75;3.63;;;;;;;;;;4890031;29;20052;-81
2023/10/16 06:32:07;;;;;;;3.08;2.17;;;;;;;;;;4874371;29;20060;-81
2023/10/16 06:34:37;;;;;;;2.45;2.20;;;;;;;;;;4895537;29;20408;-81
2023/10/16 06:37:09;;;;;;;3.05;2.70;;;;;;;;;;4897799;29;20059;-81
2023/10/16 06:39:37;;;;;;;3.65;2.83;;;;;;;;;;4895738;29;20053;-81
2023/10/16 06:42:05;;;;;;;3.85;2.67;;;;;;;;;;4890998;29;20423;-81
2023/10/16 06:44:42;;;;;;;3.10;2.28;;;;;;;;;;4875932;29;20049;-81
2023/10/16 06:47:12;;;;;;;3.75;3.10;;;;;;;;;;4889479;29;20048;-81
2023/10/16 06:49:42;;;;;;;3.10;2.47;;;;;;;;;;4887280;29;20082;-81
2023/10/16 06:52:12;;;;;;;3.38;2.85;;;;;;;;;;4869006;29;20044;-81
2023/10/16 06:54:39;;;;;;;5.50;3.92;;;;;;;;;;4884827;29;20068;-81
2023/10/16 06:57:11;;;;;;;3.35;3.03;;;;;;;;;;4885862;29;20061;-81
2023/10/16 06:59:39;;;;;;;3.25;2.88;;;;;;;;;;4888735;29;20045;-81
2023/10/16 07:02:08;;;;;;;3.83;3.22;;;;;;;;;;4892223;29;20087;-80
2023/10/16 07:04:40;;;;;;;3.38;2.60;;;;;;;;;;4890849;23;20045;-82
2023/10/16 07:07:14;;;;;;;2.95;2.70;;;;;;;;;;4882400;29;20066;-82
2023/10/16 07:09:47;;;;;;;3.83;3.47;;;;;;;;;;4883795;29;20053;-82
2023/10/16 07:12:19;;;;;;;3.80;3.15;;;;;;;;;;4865877;29;20064;-82
2023/10/16 07:14:55;;;;;;;2.75;2.33;;;;;;;;;;4864566;29;20049;-82
2023/10/16 07:17:24;;;;;;;3.22;2.58;;;;;;;;;;4848730;29;20056;-82
2023/10/16 07:19:58;;;;;;;2.65;2.45;;;;;;;;;;4848357;29;20056;-82
2023/10/16 07:22:31;;;;;;;2.75;2.15;;;;;;;;;;4848136;29;20048;-82
2023/10/16 07:25:22;;;;;;;2.85;2.50;;;;;;;;;;4857536;29;20064;-82
2023/10/16 07:27:57;;;;;;;9.57;2.97;;;;;;;;;;4847684;29;20049;-82
2023/10/16 07:30:25;;;;;;;3.55;2.83;;;;;;;;;;4858000;29;20445;-82
2023/10/16 07:32:55;;;;;;;3.92;2.67;;;;;;;;;;4862412;29;20041;-82
2023/10/16 07:35:22;;;;;;;3.50;2.72;;;;;;;;;;4846892;29;20136;-82
2023/10/16 07:37:53;;;;;;;2.80;2.40;;;;;;;;;;4877624;29;20057;-82
2023/10/16 07:40:25;;;;;;;2.92;2.58;;;;;;;;;;4861955;29;20064;-83
2023/10/16 07:42:54;;;;;;;2.88;2.55;;;;;;;;;;4863150;29;20049;-83
2023/10/16 07:45:21;;;;;;;3.63;2.50;;;;;;;;;;4876430;29;20570;-83
2023/10/16 07:47:50;;;;;;;2.67;2.38;;;;;;;;;;4861852;29;20045;-83
2023/10/16 07:50:21;;;;;;;3.17;2.53;;;;;;;;;;4869636;29;20408;-83
2023/10/16 07:52:51;;;;;;;4.78;2.60;;;;;;;;;;4846158;29;20046;-83
2023/10/16 07:55:38;;;;;;;1.90;1.73;;;;;;;;;;4873494;29;20058;-82
2023/10/16 07:58:15;;;;;;;4.03;1.90;;;;;;;;;;4875311;29;20064;-82
2023/10/16 08:00:57;;;;;;;2.65;2.10;;;;;;;;;;4875794;29;20061;-82
2023/10/16 08:03:26;;;;;;;3.10;2.33;;;;;;;;;;4860784;29;20046;-82
2023/10/16 08:05:53;;;;;;;2.30;1.90;;;;;;;;;;4845610;29;20412;-82
2023/10/16 08:08:35;;;;;;;2.88;2.28;;;;;;;;;;4876519;29;20424;-82
2023/10/16 08:11:12;;;;;;;3.47;1.42;;;;;;;;;;4845109;29;20065;-83
2023/10/16 08:13:47;;;;;;;4.30;1.90;;;;;;;;;;4845519;29;20056;-83
2023/10/16 08:16:17;;;;;;;2.35;2.05;;;;;;;;;;4876017;29;20496;-83
2023/10/16 08:18:48;;;;;;;4.45;2.92;;;;;;;;;;4846372;29;20511;-83
2023/10/16 08:21:25;;;;;;;4.40;3.28;;;;;;;;;;4858707;29;20054;-83
2023/10/16 08:23:53;;;;;;;3.00;2.40;;;;;;;;;;4863261;29;20057;-82
2023/10/16 08:26:29;;;;;;;3.72;3.08;;;;;;;;;;4845318;29;20049;-82
2023/10/16 08:29:11;;;;;;;5.63;4.10;;;;;;;;;;4862004;29;20057;-82
2023/10/16 08:31:42;;;;;;;6.38;3.50;;;;;;;;;;4860759;29;20046;-82
2023/10/16 08:34:09;;;;;;;8.05;4.75;;;;;;;;;;4845916;29;20053;-82
2023/10/16 08:36:37;;;;;;;5.53;3.65;;;;;;;;;;4845401;29;20058;-82
2023/10/16 08:39:15;;;;;;;4.93;3.38;;;;;;;;;;4876147;29;20519;-82
2023/10/16 08:41:51;;;;;;;4.93;3.20;;;;;;;;;;4844891;29;20057;-81
2023/10/16 08:44:23;;;;;;;4.82;3.63;;;;;;;;;;4848530;29;20049;-81
2023/10/16 08:49:39;;;;;;;4.22;3.25;;;;;;;;;;4861814;29;20045;-82
2023/10/16 08:52:10;;;;;;;12.70;3.92;;;;;;;;;;4844567;29;20069;-81
2023/10/16 08:55:00;;;;;;;3.75;3.00;;;;;;;;;;4844605;29;20069;-82
2023/10/16 08:57:31;;;;;;;4.43;2.92;;;;;;;;;;4860798;29;20049;-82
2023/10/16 09:00:10;;;;;;;3.40;2.80;;;;;;;;;;4860427;29;20050;-81
2023/10/16 09:02:39;;;;;;;4.18;2.95;;;;;;;;;;4859041;29;20058;-81
2023/10/16 09:05:08;;;;;;;2.70;2.50;;;;;;;;;;4874612;29;20057;-81
2023/10/16 09:07:39;;;;;;;3.17;2.55;;;;;;;;;;4843700;29;20069;-82
2023/10/16 09:10:10;;;;;;;2.65;2.40;;;;;;;;;;4843648;29;20064;-82
2023/10/16 09:12:52;;;;;;;3.15;2.60;;;;;;;;;;4841140;29;20057;-81
2023/10/16 09:15:24;;;;;;;4.20;2.88;;;;;;;;;;4858334;29;20250;-81
2023/10/16 09:17:52;;;;;;;5.38;2.90;;;;;;;;;;4840624;29;20054;-82
2023/10/16 09:20:33;;;;;;;6.00;3.63;;;;;;;;;;4842964;29;20527;-82
2023/10/16 09:23:06;;;;;;;3.25;2.95;;;;;;;;;;4860044;29;20533;-82
2023/10/16 09:25:35;;;;;;;5.05;2.90;;;;;;;;;;4843733;29;20063;-81
2023/10/16 09:28:04;;;;;;;3.17;2.20;;;;;;;;;;4843533;29;20061;-82
2023/10/16 09:30:33;;;;;;;2.55;1.92;;;;;;;;;;4839881;29;20314;-81
2023/10/16 09:33:00;;;;;;;3.17;2.47;;;;;;;;;;4843472;29;20065;-82
2023/10/16 09:35:32;;;;;;;4.90;2.63;;;;;;;;;;4843285;29;20049;-81
2023/10/16 09:38:17;;;;;;;2.85;2.50;;;;;;;;;;4860063;29;20062;-81
2023/10/16 09:40:58;;;;;;;6.15;2.63;;;;;;;;;;4842616;29;20053;-82
2023/10/16 09:43:27;;;;;;;2.97;2.08;;;;;;;;;;4858643;29;20419;-82
2023/10/16 09:48:42;;;;;;;5.50;2.30;;;;;;;;;;4858334;29;20042;-82
2023/10/16 09:51:12;;;;;;;3.70;2.67;;;;;;;;;;4859387;29;20053;-81
2023/10/16 09:53:42;;;;;;;8.60;3.83;;;;;;;;;;4858578;29;20060;-81
2023/10/16 09:56:12;;;;;;;3.08;2.42;;;;;;;;;;4843342;29;20049;-81
2023/10/16 09:58:45;;;;;;;3.72;2.40;;;;;;;;;;4843716;29;20064;-82
2023/10/16 10:01:28;;;;;;;2.78;1.88;;;;;;;;;;4859626;29;20504;-82
2023/10/16 10:04:03;;;;;;;3.13;2.60;;;;;;;;;;4858471;29;20054;-81
2023/10/16 10:06:35;;;;;;;3.28;2.28;;;;;;;;;;4859971;29;20053;-82
2023/10/16 10:12:13;;;;;;;6.50;3.55;;;;;;;;;;4860072;29;20053;-82
2023/10/16 10:14:48;;;;;;;5.22;2.13;;;;;;;;;;4858765;29;20058;-82
2023/10/16 10:17:20;;;;;;;3.80;2.25;;;;;;;;;;4859349;29;20654;-82
2023/10/16 10:19:54;;;;;;;5.07;3.05;;;;;;;;;;4859348;29;20674;-83
2023/10/16 10:22:26;;;;;;;2.90;2.20;;;;;;;;;;4858923;29;20057;-82
2023/10/16 10:25:11;;;;;;;3.20;2.17;;;;;;;;;;4857807;29;20045;-82
2023/10/16 10:27:41;;;;;;;3.50;2.35;;;;;;;;;;4866284;29;20053;-82
2023/10/16 10:30:16;;;;;;;4.43;2.75;;;;;;;;;;4873191;29;20057;-82
2023/10/16 10:32:55;;;;;;;3.60;2.47;;;;;;;;;;4857852;29;20738;-83
2023/10/16 10:35:27;;;;;;;3.08;2.60;;;;;;;;;;4842405;29;20056;-83
2023/10/16 10:38:07;;;;;;;3.13;2.35;;;;;;;;;;4842501;29;20381;-83
2023/10/16 10:40:36;;;;;;;3.67;2.47;;;;;;;;;;4857138;29;20064;-83
2023/10/16 10:43:07;;;;;;;3.90;2.97;;;;;;;;;;4857727;29;20087;-83
2023/10/16 10:45:39;;;;;;;5.60;2.70;;;;;;;;;;4872997;29;20049;-83
2023/10/16 10:48:10;;;;;;;5.72;2.40;;;;;;;;;;4859707;29;20060;-84
2023/10/16 10:50:41;;;;;;;2.50;1.80;;;;;;;;;;4858744;29;20567;-83
2023/10/16 10:53:13;;;;;;;3.28;2.00;;;;;;;;;;4857720;29;20057;-84
2023/10/16 10:55:55;;;;;;;4.57;2.10;;;;;;;;;;4858832;29;20056;-84
2023/10/16 10:58:31;;;;;;;3.40;1.88;;;;;;;;;;4857695;29;20062;-83
2023/10/16 11:01:18;;;;;;;2.70;2.30;;;;;;;;;;4857563;29;20050;-83
2023/10/16 11:03:53;;;;;;;2.97;1.35;;;;;;;;;;4875770;29;20050;-82
2023/10/16 11:06:31;;;;;;;1.98;1.58;;;;;;;;;;4862232;29;20052;-81
2023/10/16 11:09:11;;;;;;;1.42;1.20;;;;;;;;;;4871115;29;20053;-81
2023/10/16 11:11:44;;;;;;;2.38;1.65;;;;;;;;;;4869910;29;20128;-82
2023/10/16 11:14:13;;;;;;;3.42;1.52;;;;;;;;;;4864095;29;20064;-82
2023/10/16 11:16:44;;;;;;;1.83;1.65;;;;;;;;;;4857547;29;20059;-82
2023/10/16 11:19:28;;;;;;;3.53;1.90;;;;;;;;;;4859042;29;20145;-82
2023/10/16 11:21:56;;;;;;;2.00;1.80;;;;;;;;;;4870909;29;20050;-82
2023/10/16 11:24:25;;;;;;;2.17;1.70;;;;;;;;;;4852492;29;20515;-82
2023/10/16 11:26:54;;;;;;;2.00;1.73;;;;;;;;;;4866769;29;20050;-82
2023/10/16 11:29:26;;;;;;;2.00;1.80;;;;;;;;;;4869589;29;20061;-83
2023/10/16 11:31:56;;;;;;;1.63;1.48;;;;;;;;;;4869298;29;20060;-83
2023/10/16 11:34:25;;;;;;;2.95;1.52;;;;;;;;;;4884740;29;20065;-83
2023/10/16 11:36:57;;;;;;;1.90;1.70;;;;;;;;;;4872224;29;20112;-83
2023/10/16 11:39:27;;;;;;;5.53;2.35;;;;;;;;;;4889135;29;20072;-83
2023/10/16 11:41:55;;;;;;;3.88;2.05;;;;;;;;;;4889419;29;20033;-83
2023/10/16 11:44:32;;;;;;;1.95;1.65;;;;;;;;;;4868946;29;20050;-82
2023/10/16 11:47:03;;;;;;;2.22;2.08;;;;;;;;;;4880329;29;20618;-82
2023/10/16 11:49:37;;;;;;;1.92;1.48;;;;;;;;;;4855303;29;20068;-83
2023/10/16 11:52:19;;;;;;;3.35;1.75;;;;;;;;;;4869550;29;20056;-82
2023/10/16 11:54:46;;;;;;;2.50;1.83;;;;;;;;;;4865872;29;20045;-82
2023/10/16 11:57:16;;;;;;;1.95;1.75;;;;;;;;;;4864790;29;20057;-83
2023/10/16 11:59:46;;;;;;;2.95;1.75;;;;;;;;;;4859719;29;20065;-83
2023/10/16 12:02:19;;;;;;;2.83;1.60;;;;;;;;;;4866302;29;20420;-83
2023/10/16 12:04:49;;;;;;;1.45;1.20;;;;;;;;;;4849110;29;20068;-83
2023/10/16 12:07:19;;;;;;;2.60;1.40;;;;;;;;;;4866225;29;20415;-82
2023/10/16 12:09:50;;;;;;;4.10;1.55;;;;;;;;;;4850021;29;20045;-82
2023/10/16 12:12:20;;;;;;;2.13;1.85;;;;;;;;;;4880367;29;20431;-82
2023/10/16 12:14:48;;;;;;;2.30;1.63;;;;;;;;;;4880345;29;20061;-82
2023/10/16 12:17:16;;;;;;;2.25;1.60;;;;;;;;;;4850654;29;20057;-83
2023/10/16 12:19:45;;;;;;;2.30;1.58;;;;;;;;;;4849157;29;20049;-83
2023/10/16 12:22:15;;;;;;;1.92;1.13;;;;;;;;;;4846408;29;20061;-83
2023/10/16 12:24:45;;;;;;;3.22;1.20;;;;;;;;;;4855087;29;20056;-83
2023/10/16 12:27:15;;;;;;;3.00;1.77;;;;;;;;;;4846254;29;20050;-83
2023/10/16 12:29:45;;;;;;;2.22;1.63;;;;;;;;;;4856938;29;20519;-83
2023/10/16 12:32:12;;;;;;;3.17;1.27;;;;;;;;;;4865211;29;20065;-83
2023/10/16 12:34:42;;;;;;;1.65;1.20;;;;;;;;;;4849998;29;20061;-83
2023/10/16 12:37:12;;;;;;;4.72;1.45;;;;;;;;;;4847915;29;20065;-82
2023/10/16 12:39:46;;;;;;;1.70;1.33;;;;;;;;;;4871803;29;20512;-82
2023/10/16 12:42:13;;;;;;;1.20;1.10;;;;;;;;;;4850247;29;20378;-82
2023/10/16 12:44:40;;;;;;;1.52;1.10;;;;;;;;;;4864807;29;20060;-82
2023/10/16 12:47:07;;;;;;;2.38;1.20;;;;;;;;;;4860665;29;20489;-82
2023/10/16 12:49:35;;;;;;;1.77;1.50;;;;;;;;;;4863365;29;20042;-82
2023/10/16 12:52:05;;;;;;;1.33;1.00;;;;;;;;;;4879558;29;20065;-82
2023/10/16 12:54:32;;;;;;;1.45;1.35;;;;;;;;;;4849159;29;20058;-82
2023/10/16 12:57:03;;;;;;;1.38;1.17;;;;;;;;;;4861658;29;20068;-82
2023/10/16 12:59:30;;;;;;;5.03;2.28;;;;;;;;;;4866780;29;20073;-82
2023/10/16 13:01:59;;;;;;;1.40;1.10;;;;;;;;;;4862885;29;20058;-82
2023/10/16 13:04:33;;;;;;;2.38;1.40;;;;;;;;;;4886582;23;20052;-82
2023/10/16 13:07:00;;;;;;;1.27;1.15;;;;;;;;;;4887331;29;20136;-81
2023/10/16 13:09:30;;;;;;;1.75;1.65;;;;;;;;;;4883459;29;20427;-81
2023/10/16 13:11:59;;;;;;;2.25;1.70;;;;;;;;;;4863025;29;20064;-81
2023/10/16 13:14:27;;;;;;;1.35;1.25;;;;;;;;;;4884909;29;20049;-81
2023/10/16 13:16:56;;;;;;;1.33;1.23;;;;;;;;;;4883049;29;20065;-81
2023/10/16 13:19:26;;;;;;;1.95;1.20;;;;;;;;;;4883905;29;20049;-81
2023/10/16 13:21:54;;;;;;;1.67;1.40;;;;;;;;;;4882716;29;20060;-81
2023/10/16 13:24:23;;;;;;;1.27;1.17;;;;;;;;;;4866888;29;20064;-81
2023/10/16 13:26:53;;;;;;;2.65;1.25;;;;;;;;;;4881227;29;20060;-81
2023/10/16 13:29:23;;;;;;;3.05;1.77;;;;;;;;;;4883782;29;20057;-81
2023/10/16 13:31:56;;;;;;;3.78;1.30;;;;;;;;;;4865532;29;20053;-81
2023/10/16 13:34:25;;;;;;;1.73;1.52;;;;;;;;;;4881263;29;20091;-81
2023/10/16 13:37:00;;;;;;;2.05;1.45;;;;;;;;;;4882754;29;20056;-81
2023/10/16 13:39:31;;;;;;;2.38;1.42;;;;;;;;;;4881649;29;20049;-81
2023/10/16 13:41:59;;;;;;;3.08;1.52;;;;;;;;;;4881409;29;20060;-81
2023/10/16 13:44:32;;;;;;;1.27;1.17;;;;;;;;;;4880483;29;20064;-81
2023/10/16 13:47:04;;;;;;;3.90;1.50;;;;;;;;;;4874936;29;20056;-81
2023/10/16 13:49:36;;;;;;;2.05;1.20;;;;;;;;;;4867311;29;20049;-81
2023/10/16 13:52:07;;;;;;;1.60;1.40;;;;;;;;;;4880351;29;20060;-81
2023/10/16 13:54:40;;;;;;;1.88;1.65;;;;;;;;;;4878809;29;20053;-81
2023/10/16 13:57:08;;;;;;;2.13;1.40;;;;;;;;;;4861807;29;20064;-81
2023/10/16 13:59:37;;;;;;;1.60;1.33;;;;;;;;;;4878962;29;20056;-81
2023/10/16 14:02:10;;;;;;;2.28;1.63;;;;;;;;;;4879959;29;20409;-81
2023/10/16 14:04:37;;;;;;;1.27;1.05;;;;;;;;;;4881256;29;20067;-81
2023/10/16 14:07:08;;;;;;;2.15;1.85;;;;;;;;;;4881107;29;20056;-81
2023/10/16 14:09:38;;;;;;;4.22;1.10;;;;;;;;;;4862701;29;20053;-81
2023/10/16 14:12:07;;;;;;;2.35;1.52;;;;;;;;;;4864496;29;20049;-81
2023/10/16 14:14:34;;;;;;;1.27;1.17;;;;;;;;;;4880892;29;20061;-81
2023/10/16 14:17:03;;;;;;;1.13;1.02;;;;;;;;;;4883934;29;20057;-81
2023/10/16 14:19:35;;;;;;;3.30;1.25;;;;;;;;;;4882678;29;20077;-81
2023/10/16 14:22:06;;;;;;;1.88;1.10;;;;;;;;;;4860822;29;20068;-81
2023/10/16 14:24:35;;;;;;;1.75;1.40;;;;;;;;;;4891401;29;20540;-81
2023/10/16 14:27:04;;;;;;;1.13;1.00;;;;;;;;;;4865442;29;20072;-81
2023/10/16 14:29:33;;;;;;;4.78;0.90;;;;;;;;;;4865473;29;20057;-81
2023/10/16 14:32:02;;;;;;;1.10;1.00;;;;;;;;;;4865052;29;20053;-81
2023/10/16 14:34:30;;;;;;;1.45;1.15;;;;;;;;;;4902291;29;20045;-81
2023/10/16 14:37:02;;;;;;;0.98;0.88;;;;;;;;;;4881253;29;20048;-81
2023/10/16 14:39:29;;;;;;;2.08;0.90;;;;;;;;;;4882972;29;20417;-81
2023/10/16 14:42:03;;;;;;;2.92;1.25;;;;;;;;;;4883049;29;20061;-80
2023/10/16 14:44:30;;;;;;;1.08;0.90;;;;;;;;;;4864494;29;20045;-81
2023/10/16 14:46:58;;;;;;;1.95;0.90;;;;;;;;;;4876015;29;20049;-81
2023/10/16 14:49:28;;;;;;;2.00;1.08;;;;;;;;;;4861507;29;20054;-81
2023/10/16 14:51:55;;;;;;;2.42;1.15;;;;;;;;;;4880588;29;20056;-81
2023/10/16 14:54:25;;;;;;;1.40;1.30;;;;;;;;;;4880866;29;20531;-81
2023/10/16 14:56:59;;;;;;;1.98;1.35;;;;;;;;;;4884628;29;20524;-81
2023/10/16 14:59:32;;;;;;;1.08;0.98;;;;;;;;;;4882571;29;20057;-81
2023/10/16 15:02:00;;;;;;;1.88;1.40;;;;;;;;;;4881876;29;20053;-81
2023/10/16 15:04:27;;;;;;;1.83;1.30;;;;;;;;;;4867536;29;20142;-81
2023/10/16 15:07:01;;;;;;;1.42;1.10;;;;;;;;;;4881158;29;20522;-81
2023/10/16 15:09:31;;;;;;;4.40;1.50;;;;;;;;;;4865008;29;20420;-80
2023/10/16 15:11:59;;;;;;;1.77;1.05;;;;;;;;;;4862257;29;20061;-81
2023/10/16 15:14:28;;;;;;;3.50;1.02;;;;;;;;;;4882332;29;20049;-81
2023/10/16 15:16:58;;;;;;;2.10;1.27;;;;;;;;;;4868464;29;20060;-81
2023/10/16 15:19:34;;;;;;;1.67;0.80;;;;;;;;;;4884304;29;20060;-81
2023/10/16 15:22:01;;;;;;;1.45;1.17;;;;;;;;;;4884162;29;20052;-81
2023/10/16 15:24:30;;;;;;;1.13;0.85;;;;;;;;;;4885242;29;20432;-81
2023/10/16 15:27:00;;;;;;;1.30;1.02;;;;;;;;;;4869083;29;20072;-81
2023/10/16 15:29:30;;;;;;;1.77;1.23;;;;;;;;;;4885936;29;20060;-81
2023/10/16 15:31:59;;;;;;;1.58;1.00;;;;;;;;;;4869083;29;20052;-81
2023/10/16 15:34:26;;;;;;;4.47;1.90;;;;;;;;;;4883430;29;20871;-81
2023/10/16 15:36:53;;;;;;;2.63;1.60;;;;;;;;;;4888754;29;20057;-81
2023/10/16 15:39:22;;;;;;;1.00;0.90;;;;;;;;;;4856062;29;20052;-81
2023/10/16 15:41:55;;;;;;;3.22;1.40;;;;;;;;;;4890065;29;20064;-81
2023/10/16 15:44:25;;;;;;;2.08;1.63;;;;;;;;;;4869446;29;20060;-81
2023/10/16 15:46:54;;;;;;;2.40;1.85;;;;;;;;;;4871110;29;20064;-81
2023/10/16 15:49:24;;;;;;;2.25;1.40;;;;;;;;;;4874773;29;20053;-81
2023/10/16 15:51:52;;;;;;;2.38;1.13;;;;;;;;;;4888383;29;20060;-81
2023/10/16 15:54:20;;;;;;;4.03;1.52;;;;;;;;;;4886363;29;20060;-81
2023/10/16 15:56:49;;;;;;;2.20;1.40;;;;;;;;;;4870827;29;20065;-81
2023/10/16 15:59:21;;;;;;;1.73;1.00;;;;;;;;;;4888344;29;20053;-81
2023/10/16 16:01:48;;;;;;;1.60;0.95;;;;;;;;;;4886492;29;20049;-80
2023/10/16 16:04:18;;;;;;;1.83;1.17;;;;;;;;;;4886598;29;20041;-81
2023/10/16 16:06:45;;;;;;;1.55;1.35;;;;;;;;;;4903506;29;20045;-81
2023/10/16 16:09:13;;;;;;;3.90;1.35;;;;;;;;;;4869797;29;20059;-81
2023/10/16 16:11:45;;;;;;;1.65;1.00;;;;;;;;;;4885918;29;20065;-81
2023/10/16 16:14:19;;;;;;;0.80;0.80;;;;;;;;;;4883682;29;20068;-81
2023/10/16 16:16:51;;;;;;;1.60;0.90;;;;;;;;;;4865651;29;20053;-81
2023/10/16 16:19:22;;;;;;;1.50;1.20;;;;;;;;;;4881222;29;20064;-81
2023/10/16 16:21:51;;;;;;;2.20;0.82;;;;;;;;;;4855970;29;20415;-81
2023/10/16 16:24:20;;;;;;;2.17;1.20;;;;;;;;;;4872273;29;20041;-81
2023/10/16 16:26:49;;;;;;;1.33;0.95;;;;;;;;;;4870195;29;20056;-80
2023/10/16 16:29:16;;;;;;;2.22;1.60;;;;;;;;;;4873230;29;20058;-81
2023/10/16 16:31:45;;;;;;;1.75;1.10;;;;;;;;;;4871842;29;20414;-81
2023/10/16 16:34:12;;;;;;;4.90;1.38;;;;;;;;;;4886867;29;20053;-81
2023/10/16 16:36:40;;;;;;;1.08;0.93;;;;;;;;;;4885464;29;20056;-81
2023/10/16 16:39:16;;;;;;;2.60;1.90;;;;;;;;;;4891381;29;20056;-81